sensor_id;sensor_type;location;lat;lon;timestamp;temperature;humidity
6439;DHT22;3252;52.540;13.290;2022-10-03T00:03:46;11.70;99.90
6439;DHT22;3252;52.540;13.290;2022-10-03T00:06:00;11.70;99.90
6439;DHT22;3252;52.540;13.290;2022-10-03T00:08:14;11.70;99.90
6439;DHT22;3252;52.540;13.290;2022-10-03T00:10:26;11.70;99.90
6439;DHT22;3252;52.540;13.290;2022-10-03T00:13:06;11.70;99.90
6439;DHT22;3252;52.540;13.290;2022-10-03T00:15:17;11.70;99.90
6439;DHT22;3252;52.540;13.290;2022-10-03T00:17:37;11.70;99.90
6439;DHT22;3252;52.540;13.290;2022-10-03T00:19:50;11.70;99.90
6439;DHT22;3252;52.540;13.290;2022-10-03T00:22:04;11.70;99.90
6439;DHT22;3252;52.540;13.290;2022-10-03T00:24:16;11.80;99.90
6439;DHT22;3252;52.540;13.290;2022-10-03T00:26:29;11.80;99.90
6439;DHT22;3252;52.540;13.290;2022-10-03T00:28:49;11.70;99.90
6439;DHT22;3252;52.540;13.290;2022-10-03T00:31:07;11.70;99.90
6439;DHT22;3252;52.540;13.290;2022-10-03T00:33:18;11.70;99.90
6439;DHT22;3252;52.540;13.290;2022-10-03T00:35:34;11.80;99.90
6439;DHT22;3252;52.540;13.290;2022-10-03T00:37:45;11.80;99.90
6439;DHT22;3252;52.540;13.290;2022-10-03T00:40:09;11.80;99.90
6439;DHT22;3252;52.540;13.290;2022-10-03T00:42:57;11.80;99.90
6439;DHT22;3252;52.540;13.290;2022-10-03T00:45:39;11.80;99.90
6439;DHT22;3252;52.540;13.290;2022-10-03T00:50:44;11.80;99.90
6439;DHT22;3252;52.540;13.290;2022-10-03T00:53:14;11.90;99.90
6439;DHT22;3252;52.540;13.290;2022-10-03T00:55:33;11.80;99.90
6439;DHT22;3252;52.540;13.290;2022-10-03T00:57:55;11.80;99.90
6439;DHT22;3252;52.540;13.290;2022-10-03T01:00:13;11.80;99.90
6439;DHT22;3252;52.540;13.290;2022-10-03T01:02:31;11.80;99.90
6439;DHT22;3252;52.540;13.290;2022-10-03T01:04:47;11.80;99.90
6439;DHT22;3252;52.540;13.290;2022-10-03T01:07:01;11.80;99.90
6439;DHT22;3252;52.540;13.290;2022-10-03T01:09:29;11.70;99.90
6439;DHT22;3252;52.540;13.290;2022-10-03T01:11:45;11.70;99.90
6439;DHT22;3252;52.540;13.290;2022-10-03T01:14:04;11.70;99.90
6439;DHT22;3252;52.540;13.290;2022-10-03T01:16:17;11.70;99.90
6439;DHT22;3252;52.540;13.290;2022-10-03T01:18:30;11.70;99.90
6439;DHT22;3252;52.540;13.290;2022-10-03T01:20:39;11.70;99.90
6439;DHT22;3252;52.540;13.290;2022-10-03T01:23:04;11.70;99.90
6439;DHT22;3252;52.540;13.290;2022-10-03T01:25:18;11.70;99.90
6439;DHT22;3252;52.540;13.290;2022-10-03T01:27:30;11.70;99.90
6439;DHT22;3252;52.540;13.290;2022-10-03T01:30:02;11.70;99.90
6439;DHT22;3252;52.540;13.290;2022-10-03T01:32:25;11.70;99.90
6439;DHT22;3252;52.540;13.290;2022-10-03T01:34:35;11.80;99.90
6439;DHT22;3252;52.540;13.290;2022-10-03T01:36:50;11.70;99.90
6439;DHT22;3252;52.540;13.290;2022-10-03T01:38:56;11.70;99.90
6439;DHT22;3252;52.540;13.290;2022-10-03T01:41:03;11.70;99.90
6439;DHT22;3252;52.540;13.290;2022-10-03T01:43:14;11.70;99.90
6439;DHT22;3252;52.540;13.290;2022-10-03T01:45:27;11.80;99.90
6439;DHT22;3252;52.540;13.290;2022-10-03T01:47:34;11.80;99.90
6439;DHT22;3252;52.540;13.290;2022-10-03T01:49:41;11.80;99.90
6439;DHT22;3252;52.540;13.290;2022-10-03T01:51:53;11.80;99.90
6439;DHT22;3252;52.540;13.290;2022-10-03T01:54:09;11.80;99.90
6439;DHT22;3252;52.540;13.290;2022-10-03T01:56:20;11.90;99.90
6439;DHT22;3252;52.540;13.290;2022-10-03T01:58:29;11.80;99.90
6439;DHT22;3252;52.540;13.290;2022-10-03T02:00:44;11.90;99.90
6439;DHT22;3252;52.540;13.290;2022-10-03T02:02:51;11.90;99.90
6439;DHT22;3252;52.540;13.290;2022-10-03T02:05:02;11.90;99.90
6439;DHT22;3252;52.540;13.290;2022-10-03T02:07:13;11.90;99.90
6439;DHT22;3252;52.540;13.290;2022-10-03T02:09:29;11.90;99.90
6439;DHT22;3252;52.540;13.290;2022-10-03T02:11:37;11.90;99.90
6439;DHT22;3252;52.540;13.290;2022-10-03T02:13:44;11.90;99.90
6439;DHT22;3252;52.540;13.290;2022-10-03T02:16:01;11.90;99.90
6439;DHT22;3252;52.540;13.290;2022-10-03T02:18:12;12.00;99.90
6439;DHT22;3252;52.540;13.290;2022-10-03T02:20:23;12.00;99.90
6439;DHT22;3252;52.540;13.290;2022-10-03T02:22:30;12.00;99.90
6439;DHT22;3252;52.540;13.290;2022-10-03T02:24:42;12.00;99.90
6439;DHT22;3252;52.540;13.290;2022-10-03T02:27:04;12.00;99.90
6439;DHT22;3252;52.540;13.290;2022-10-03T02:29:30;12.00;99.90
6439;DHT22;3252;52.540;13.290;2022-10-03T02:31:49;12.00;99.90
6439;DHT22;3252;52.540;13.290;2022-10-03T02:34:23;12.10;99.90
6439;DHT22;3252;52.540;13.290;2022-10-03T02:36:50;12.10;99.90
6439;DHT22;3252;52.540;13.290;2022-10-03T02:39:27;12.10;99.90
6439;DHT22;3252;52.540;13.290;2022-10-03T02:42:04;12.00;99.90
6439;DHT22;3252;52.540;13.290;2022-10-03T02:47:35;12.10;99.90
6439;DHT22;3252;52.540;13.290;2022-10-03T02:52:51;12.10;99.90
6439;DHT22;3252;52.540;13.290;2022-10-03T02:55:21;12.10;99.90
6439;DHT22;3252;52.540;13.290;2022-10-03T02:57:57;12.10;99.90
6439;DHT22;3252;52.540;13.290;2022-10-03T03:00:17;12.10;99.90
6439;DHT22;3252;52.540;13.290;2022-10-03T03:02:47;12.10;99.90
6439;DHT22;3252;52.540;13.290;2022-10-03T03:05:17;12.10;99.90
6439;DHT22;3252;52.540;13.290;2022-10-03T03:07:41;12.10;99.90
6439;DHT22;3252;52.540;13.290;2022-10-03T03:10:11;12.10;99.90
6439;DHT22;3252;52.540;13.290;2022-10-03T03:12:59;12.10;99.90
6439;DHT22;3252;52.540;13.290;2022-10-03T03:17:58;12.00;99.90
6439;DHT22;3252;52.540;13.290;2022-10-03T03:22:57;12.00;99.90
6439;DHT22;3252;52.540;13.290;2022-10-03T03:27:41;12.00;99.90
6439;DHT22;3252;52.540;13.290;2022-10-03T03:29:52;12.00;99.90
6439;DHT22;3252;52.540;13.290;2022-10-03T03:32:05;12.00;99.90
6439;DHT22;3252;52.540;13.290;2022-10-03T03:34:17;12.00;99.90
6439;DHT22;3252;52.540;13.290;2022-10-03T03:36:29;12.00;99.90
6439;DHT22;3252;52.540;13.290;2022-10-03T03:38:41;12.00;99.90
6439;DHT22;3252;52.540;13.290;2022-10-03T03:40:54;12.00;99.90
6439;DHT22;3252;52.540;13.290;2022-10-03T03:43:23;12.00;99.90
6439;DHT22;3252;52.540;13.290;2022-10-03T03:45:34;12.00;99.90
6439;DHT22;3252;52.540;13.290;2022-10-03T03:47:55;12.00;99.90
6439;DHT22;3252;52.540;13.290;2022-10-03T03:50:20;12.00;99.90
6439;DHT22;3252;52.540;13.290;2022-10-03T03:52:35;12.00;99.90
6439;DHT22;3252;52.540;13.290;2022-10-03T03:57:40;12.00;99.90
6439;DHT22;3252;52.540;13.290;2022-10-03T04:00:05;12.00;99.90
6439;DHT22;3252;52.540;13.290;2022-10-03T04:02:23;12.00;99.90
6439;DHT22;3252;52.540;13.290;2022-10-03T04:04:39;12.00;99.90
6439;DHT22;3252;52.540;13.290;2022-10-03T04:06:53;12.00;99.90
6439;DHT22;3252;52.540;13.290;2022-10-03T04:09:23;12.00;99.90
6439;DHT22;3252;52.540;13.290;2022-10-03T04:11:39;12.00;99.90
6439;DHT22;3252;52.540;13.290;2022-10-03T04:13:59;12.00;99.90
6439;DHT22;3252;52.540;13.290;2022-10-03T04:16:20;12.00;99.90
6439;DHT22;3252;52.540;13.290;2022-10-03T04:18:57;12.00;99.90
6439;DHT22;3252;52.540;13.290;2022-10-03T04:21:15;12.00;99.90
6439;DHT22;3252;52.540;13.290;2022-10-03T04:23:36;12.00;99.90
6439;DHT22;3252;52.540;13.290;2022-10-03T04:25:48;12.00;99.90
6439;DHT22;3252;52.540;13.290;2022-10-03T04:28:23;12.00;99.90
6439;DHT22;3252;52.540;13.290;2022-10-03T04:30:39;12.00;99.90
6439;DHT22;3252;52.540;13.290;2022-10-03T04:33:00;11.90;99.90
6439;DHT22;3252;52.540;13.290;2022-10-03T04:35:16;12.00;99.90
6439;DHT22;3252;52.540;13.290;2022-10-03T04:37:33;12.00;99.90
6439;DHT22;3252;52.540;13.290;2022-10-03T04:39:49;11.90;99.90
6439;DHT22;3252;52.540;13.290;2022-10-03T04:41:57;12.00;99.90
6439;DHT22;3252;52.540;13.290;2022-10-03T04:44:10;12.00;99.90
6439;DHT22;3252;52.540;13.290;2022-10-03T04:46:22;12.00;99.90
6439;DHT22;3252;52.540;13.290;2022-10-03T04:48:32;12.00;99.90
6439;DHT22;3252;52.540;13.290;2022-10-03T04:50:41;12.00;99.90
6439;DHT22;3252;52.540;13.290;2022-10-03T04:52:49;12.00;99.90
6439;DHT22;3252;52.540;13.290;2022-10-03T04:54:59;11.90;99.90
6439;DHT22;3252;52.540;13.290;2022-10-03T04:57:13;11.90;99.90
6439;DHT22;3252;52.540;13.290;2022-10-03T04:59:33;11.90;99.90
6439;DHT22;3252;52.540;13.290;2022-10-03T05:01:43;11.80;99.90
6439;DHT22;3252;52.540;13.290;2022-10-03T05:03:57;11.90;99.90
6439;DHT22;3252;52.540;13.290;2022-10-03T05:06:06;11.80;99.90
6439;DHT22;3252;52.540;13.290;2022-10-03T05:08:34;11.90;99.90
6439;DHT22;3252;52.540;13.290;2022-10-03T05:10:56;11.90;99.90
6439;DHT22;3252;52.540;13.290;2022-10-03T05:13:10;11.90;99.90
6439;DHT22;3252;52.540;13.290;2022-10-03T05:15:19;11.90;99.90
6439;DHT22;3252;52.540;13.290;2022-10-03T05:17:27;11.90;99.90
6439;DHT22;3252;52.540;13.290;2022-10-03T05:19:59;11.90;99.90
6439;DHT22;3252;52.540;13.290;2022-10-03T05:22:10;11.90;99.90
6439;DHT22;3252;52.540;13.290;2022-10-03T05:24:24;11.90;99.90
6439;DHT22;3252;52.540;13.290;2022-10-03T05:26:38;11.90;99.90
6439;DHT22;3252;52.540;13.290;2022-10-03T05:28:47;11.90;99.90
6439;DHT22;3252;52.540;13.290;2022-10-03T05:30:56;11.90;99.90
6439;DHT22;3252;52.540;13.290;2022-10-03T05:33:02;11.90;99.90
6439;DHT22;3252;52.540;13.290;2022-10-03T05:35:30;11.90;99.90
6439;DHT22;3252;52.540;13.290;2022-10-03T05:37:58;11.90;99.90
6439;DHT22;3252;52.540;13.290;2022-10-03T05:40:12;11.90;99.90
6439;DHT22;3252;52.540;13.290;2022-10-03T05:42:38;11.90;99.90
6439;DHT22;3252;52.540;13.290;2022-10-03T05:44:50;11.90;99.90
6439;DHT22;3252;52.540;13.290;2022-10-03T05:46:57;12.00;99.90
6439;DHT22;3252;52.540;13.290;2022-10-03T05:49:14;12.00;99.90
6439;DHT22;3252;52.540;13.290;2022-10-03T05:51:42;12.00;99.90
6439;DHT22;3252;52.540;13.290;2022-10-03T05:56:55;12.00;99.90
6439;DHT22;3252;52.540;13.290;2022-10-03T05:59:42;12.00;99.90
6439;DHT22;3252;52.540;13.290;2022-10-03T06:02:05;12.00;99.90
6439;DHT22;3252;52.540;13.290;2022-10-03T06:04:39;12.00;99.90
6439;DHT22;3252;52.540;13.290;2022-10-03T06:06:50;12.00;99.90
6439;DHT22;3252;52.540;13.290;2022-10-03T06:09:21;12.00;99.90
6439;DHT22;3252;52.540;13.290;2022-10-03T06:14:26;12.10;99.90
6439;DHT22;3252;52.540;13.290;2022-10-03T06:16:36;12.00;99.90
6439;DHT22;3252;52.540;13.290;2022-10-03T06:19:20;12.10;99.90
6439;DHT22;3252;52.540;13.290;2022-10-03T06:21:53;12.10;99.90
6439;DHT22;3252;52.540;13.290;2022-10-03T06:24:24;12.10;99.90
6439;DHT22;3252;52.540;13.290;2022-10-03T06:26:42;12.10;99.90
6439;DHT22;3252;52.540;13.290;2022-10-03T06:29:14;12.20;99.90
6439;DHT22;3252;52.540;13.290;2022-10-03T06:31:51;12.20;99.90
6439;DHT22;3252;52.540;13.290;2022-10-03T06:37:03;12.20;99.90
6439;DHT22;3252;52.540;13.290;2022-10-03T06:47:02;12.20;99.90
6439;DHT22;3252;52.540;13.290;2022-10-03T06:52:30;12.30;99.90
6439;DHT22;3252;52.540;13.290;2022-10-03T06:57:27;12.30;99.90
6439;DHT22;3252;52.540;13.290;2022-10-03T07:00:00;12.30;99.90
6439;DHT22;3252;52.540;13.290;2022-10-03T07:02:25;12.40;99.90
6439;DHT22;3252;52.540;13.290;2022-10-03T07:05:03;12.40;99.90
6439;DHT22;3252;52.540;13.290;2022-10-03T07:07:43;12.40;99.90
6439;DHT22;3252;52.540;13.290;2022-10-03T07:10:18;12.50;99.90
6439;DHT22;3252;52.540;13.290;2022-10-03T07:12:40;12.50;99.90
6439;DHT22;3252;52.540;13.290;2022-10-03T07:15:07;12.60;99.90
6439;DHT22;3252;52.540;13.290;2022-10-03T07:17:31;12.60;99.90
6439;DHT22;3252;52.540;13.290;2022-10-03T07:20:04;12.60;99.90
6439;DHT22;3252;52.540;13.290;2022-10-03T07:22:54;12.70;99.90
6439;DHT22;3252;52.540;13.290;2022-10-03T07:27:52;12.70;99.90
6439;DHT22;3252;52.540;13.290;2022-10-03T07:30:09;12.70;99.90
6439;DHT22;3252;52.540;13.290;2022-10-03T07:32:33;12.70;99.90
6439;DHT22;3252;52.540;13.290;2022-10-03T07:37:28;12.80;99.90
6439;DHT22;3252;52.540;13.290;2022-10-03T07:42:39;12.90;99.90
6439;DHT22;3252;52.540;13.290;2022-10-03T07:45:23;12.90;99.90
6439;DHT22;3252;52.540;13.290;2022-10-03T07:50:34;13.00;99.90
6439;DHT22;3252;52.540;13.290;2022-10-03T07:53:00;13.10;99.90
6439;DHT22;3252;52.540;13.290;2022-10-03T07:55:27;13.10;99.90
6439;DHT22;3252;52.540;13.290;2022-10-03T07:58:05;13.10;99.90
6439;DHT22;3252;52.540;13.290;2022-10-03T08:00:18;13.10;99.90
6439;DHT22;3252;52.540;13.290;2022-10-03T08:05:30;13.20;99.90
6439;DHT22;3252;52.540;13.290;2022-10-03T08:07:50;13.20;99.90
6439;DHT22;3252;52.540;13.290;2022-10-03T08:10:06;13.30;99.90
6439;DHT22;3252;52.540;13.290;2022-10-03T08:12:36;13.20;99.90
6439;DHT22;3252;52.540;13.290;2022-10-03T08:14:50;13.40;99.90
6439;DHT22;3252;52.540;13.290;2022-10-03T08:17:15;13.40;99.90
6439;DHT22;3252;52.540;13.290;2022-10-03T08:19:40;13.40;99.90
6439;DHT22;3252;52.540;13.290;2022-10-03T08:21:55;13.50;99.90
6439;DHT22;3252;52.540;13.290;2022-10-03T08:24:15;13.70;99.90
6439;DHT22;3252;52.540;13.290;2022-10-03T08:33:48;13.90;99.90
6439;DHT22;3252;52.540;13.290;2022-10-03T08:36:27;13.90;99.90
6439;DHT22;3252;52.540;13.290;2022-10-03T08:38:52;14.00;99.90
6439;DHT22;3252;52.540;13.290;2022-10-03T08:41:52;14.00;99.90
6439;DHT22;3252;52.540;13.290;2022-10-03T08:44:25;14.10;99.90
6439;DHT22;3252;52.540;13.290;2022-10-03T08:47:15;14.10;99.90
6439;DHT22;3252;52.540;13.290;2022-10-03T08:50:02;14.10;99.90
6439;DHT22;3252;52.540;13.290;2022-10-03T08:52:15;14.40;99.90
6439;DHT22;3252;52.540;13.290;2022-10-03T08:57:16;14.30;99.90
6439;DHT22;3252;52.540;13.290;2022-10-03T08:59:42;14.40;99.90
6439;DHT22;3252;52.540;13.290;2022-10-03T09:02:15;14.40;99.90
6439;DHT22;3252;52.540;13.290;2022-10-03T09:04:59;14.40;99.90
6439;DHT22;3252;52.540;13.290;2022-10-03T09:07:24;14.40;99.90
6439;DHT22;3252;52.540;13.290;2022-10-03T09:12:31;14.40;99.90
6439;DHT22;3252;52.540;13.290;2022-10-03T09:22:44;14.40;99.90
6439;DHT22;3252;52.540;13.290;2022-10-03T09:25:18;14.40;99.90
6439;DHT22;3252;52.540;13.290;2022-10-03T09:27:42;14.40;99.90
6439;DHT22;3252;52.540;13.290;2022-10-03T09:30:29;14.50;99.90
6439;DHT22;3252;52.540;13.290;2022-10-03T09:32:55;14.50;99.90
6439;DHT22;3252;52.540;13.290;2022-10-03T09:35:39;14.70;99.90
6439;DHT22;3252;52.540;13.290;2022-10-03T09:41:05;14.70;99.90
6439;DHT22;3252;52.540;13.290;2022-10-03T09:46:37;14.80;99.90
6439;DHT22;3252;52.540;13.290;2022-10-03T09:51:38;15.00;99.90
6439;DHT22;3252;52.540;13.290;2022-10-03T09:54:20;15.00;99.90
6439;DHT22;3252;52.540;13.290;2022-10-03T09:56:56;14.90;99.90
6439;DHT22;3252;52.540;13.290;2022-10-03T09:59:22;14.90;99.90
6439;DHT22;3252;52.540;13.290;2022-10-03T10:01:32;14.80;99.90
6439;DHT22;3252;52.540;13.290;2022-10-03T10:04:04;14.80;99.90
6439;DHT22;3252;52.540;13.290;2022-10-03T10:06:21;14.70;99.90
6439;DHT22;3252;52.540;13.290;2022-10-03T10:08:58;14.80;99.90
6439;DHT22;3252;52.540;13.290;2022-10-03T10:11:23;14.80;99.90
6439;DHT22;3252;52.540;13.290;2022-10-03T10:14:02;14.90;99.90
6439;DHT22;3252;52.540;13.290;2022-10-03T10:16:40;14.90;99.90
6439;DHT22;3252;52.540;13.290;2022-10-03T10:19:18;15.00;99.90
6439;DHT22;3252;52.540;13.290;2022-10-03T10:24:28;15.40;99.90
6439;DHT22;3252;52.540;13.290;2022-10-03T10:26:57;15.50;99.90
6439;DHT22;3252;52.540;13.290;2022-10-03T10:29:25;15.50;99.90
6439;DHT22;3252;52.540;13.290;2022-10-03T10:37:39;16.20;99.90
6439;DHT22;3252;52.540;13.290;2022-10-03T10:42:57;16.70;99.90
6439;DHT22;3252;52.540;13.290;2022-10-03T10:45:23;16.90;99.90
6439;DHT22;3252;52.540;13.290;2022-10-03T10:50:29;16.70;99.90
6439;DHT22;3252;52.540;13.290;2022-10-03T11:00:38;16.50;99.90
6439;DHT22;3252;52.540;13.290;2022-10-03T11:05:57;16.40;99.90
6439;DHT22;3252;52.540;13.290;2022-10-03T11:08:41;16.20;99.90
6439;DHT22;3252;52.540;13.290;2022-10-03T11:11:04;16.20;99.90
6439;DHT22;3252;52.540;13.290;2022-10-03T11:16:22;15.90;99.90
6439;DHT22;3252;52.540;13.290;2022-10-03T11:19:06;16.00;99.90
6439;DHT22;3252;52.540;13.290;2022-10-03T11:21:49;15.90;99.90
6439;DHT22;3252;52.540;13.290;2022-10-03T11:27:12;15.70;99.90
6439;DHT22;3252;52.540;13.290;2022-10-03T11:35:15;15.70;99.90
6439;DHT22;3252;52.540;13.290;2022-10-03T11:37:34;15.60;99.90
6439;DHT22;3252;52.540;13.290;2022-10-03T11:39:46;15.60;99.90
6439;DHT22;3252;52.540;13.290;2022-10-03T11:41:55;15.60;99.90
6439;DHT22;3252;52.540;13.290;2022-10-03T11:44:25;15.60;99.90
6439;DHT22;3252;52.540;13.290;2022-10-03T11:46:46;15.60;99.90
6439;DHT22;3252;52.540;13.290;2022-10-03T11:48:54;15.70;99.90
6439;DHT22;3252;52.540;13.290;2022-10-03T11:51:02;15.60;99.90
6439;DHT22;3252;52.540;13.290;2022-10-03T11:55:34;15.60;99.90
6439;DHT22;3252;52.540;13.290;2022-10-03T11:57:40;15.60;99.90
6439;DHT22;3252;52.540;13.290;2022-10-03T11:59:55;15.50;99.90
6439;DHT22;3252;52.540;13.290;2022-10-03T12:02:06;15.50;99.90
6439;DHT22;3252;52.540;13.290;2022-10-03T12:04:19;15.50;99.90
6439;DHT22;3252;52.540;13.290;2022-10-03T12:06:50;15.50;99.90
6439;DHT22;3252;52.540;13.290;2022-10-03T12:09:17;15.50;99.90
6439;DHT22;3252;52.540;13.290;2022-10-03T12:11:23;15.60;99.90
6439;DHT22;3252;52.540;13.290;2022-10-03T12:13:33;15.90;99.90
6439;DHT22;3252;52.540;13.290;2022-10-03T12:15:40;16.00;99.90
6439;DHT22;3252;52.540;13.290;2022-10-03T12:17:47;16.30;99.90
6439;DHT22;3252;52.540;13.290;2022-10-03T12:19:58;17.20;99.90
6439;DHT22;3252;52.540;13.290;2022-10-03T12:22:17;17.10;99.90
6439;DHT22;3252;52.540;13.290;2022-10-03T12:24:25;16.90;99.90
6439;DHT22;3252;52.540;13.290;2022-10-03T12:26:40;16.80;99.90
6439;DHT22;3252;52.540;13.290;2022-10-03T12:28:49;16.70;99.90
6439;DHT22;3252;52.540;13.290;2022-10-03T12:30:56;16.80;99.90
6439;DHT22;3252;52.540;13.290;2022-10-03T12:33:11;17.00;99.90
6439;DHT22;3252;52.540;13.290;2022-10-03T12:35:32;18.30;99.90
6439;DHT22;3252;52.540;13.290;2022-10-03T12:37:45;20.60;99.50
6439;DHT22;3252;52.540;13.290;2022-10-03T12:39:55;23.00;93.20
6439;DHT22;3252;52.540;13.290;2022-10-03T12:42:17;23.30;87.20
6439;DHT22;3252;52.540;13.290;2022-10-03T12:44:32;21.70;90.70
6439;DHT22;3252;52.540;13.290;2022-10-03T12:46:43;21.00;94.00
6439;DHT22;3252;52.540;13.290;2022-10-03T12:48:54;20.50;95.80
6439;DHT22;3252;52.540;13.290;2022-10-03T12:51:03;19.70;96.40
6439;DHT22;3252;52.540;13.290;2022-10-03T12:53:21;19.20;98.10
6439;DHT22;3252;52.540;13.290;2022-10-03T12:55:27;19.10;97.80
6439;DHT22;3252;52.540;13.290;2022-10-03T12:57:50;18.80;98.40
6439;DHT22;3252;52.540;13.290;2022-10-03T13:00:03;18.50;98.90
6439;DHT22;3252;52.540;13.290;2022-10-03T13:02:22;19.10;98.60
6439;DHT22;3252;52.540;13.290;2022-10-03T13:04:33;20.60;94.60
6439;DHT22;3252;52.540;13.290;2022-10-03T13:06:50;22.20;89.70
6439;DHT22;3252;52.540;13.290;2022-10-03T13:09:15;23.90;80.20
6439;DHT22;3252;52.540;13.290;2022-10-03T13:11:30;23.70;71.40
6439;DHT22;3252;52.540;13.290;2022-10-03T13:13:45;22.90;77.00
6439;DHT22;3252;52.540;13.290;2022-10-03T13:16:10;22.50;76.80
6439;DHT22;3252;52.540;13.290;2022-10-03T13:18:31;21.70;81.10
6439;DHT22;3252;52.540;13.290;2022-10-03T13:20:37;20.60;83.00
6439;DHT22;3252;52.540;13.290;2022-10-03T13:22:45;19.90;89.60
6439;DHT22;3252;52.540;13.290;2022-10-03T13:24:54;19.50;92.10
6439;DHT22;3252;52.540;13.290;2022-10-03T13:27:17;19.10;92.70
6439;DHT22;3252;52.540;13.290;2022-10-03T13:29:27;18.50;94.50
6439;DHT22;3252;52.540;13.290;2022-10-03T13:31:34;18.30;95.50
6439;DHT22;3252;52.540;13.290;2022-10-03T13:33:43;18.50;95.70
6439;DHT22;3252;52.540;13.290;2022-10-03T13:35:48;18.30;96.20
6439;DHT22;3252;52.540;13.290;2022-10-03T13:38:35;18.00;96.70
6439;DHT22;3252;52.540;13.290;2022-10-03T13:40:45;18.10;96.80
6439;DHT22;3252;52.540;13.290;2022-10-03T13:42:49;18.30;97.00
6439;DHT22;3252;52.540;13.290;2022-10-03T13:44:55;18.20;97.10
6439;DHT22;3252;52.540;13.290;2022-10-03T13:47:09;19.50;94.80
6439;DHT22;3252;52.540;13.290;2022-10-03T13:49:22;20.20;92.70
6439;DHT22;3252;52.540;13.290;2022-10-03T13:51:33;20.50;91.60
6439;DHT22;3252;52.540;13.290;2022-10-03T13:53:50;19.70;93.30
6439;DHT22;3252;52.540;13.290;2022-10-03T13:55:56;19.40;94.40
6439;DHT22;3252;52.540;13.290;2022-10-03T14:00:36;18.50;96.00
6439;DHT22;3252;52.540;13.290;2022-10-03T14:02:54;18.20;96.90
6439;DHT22;3252;52.540;13.290;2022-10-03T14:05:17;17.70;97.80
6439;DHT22;3252;52.540;13.290;2022-10-03T14:07:29;17.30;98.90
6439;DHT22;3252;52.540;13.290;2022-10-03T14:09:49;17.10;99.60
6439;DHT22;3252;52.540;13.290;2022-10-03T14:12:06;17.10;99.90
6439;DHT22;3252;52.540;13.290;2022-10-03T14:17:01;17.00;99.90
6439;DHT22;3252;52.540;13.290;2022-10-03T14:19:10;17.00;99.90
6439;DHT22;3252;52.540;13.290;2022-10-03T14:23:49;16.90;99.90
6439;DHT22;3252;52.540;13.290;2022-10-03T14:25:59;16.80;99.90
6439;DHT22;3252;52.540;13.290;2022-10-03T14:28:12;16.80;99.90
6439;DHT22;3252;52.540;13.290;2022-10-03T14:30:19;16.80;99.90
6439;DHT22;3252;52.540;13.290;2022-10-03T14:32:26;16.70;99.90
6439;DHT22;3252;52.540;13.290;2022-10-03T14:34:41;16.70;99.90
6439;DHT22;3252;52.540;13.290;2022-10-03T14:36:50;16.70;99.90
6439;DHT22;3252;52.540;13.290;2022-10-03T14:39:05;16.70;99.90
6439;DHT22;3252;52.540;13.290;2022-10-03T14:41:17;16.60;99.90
6439;DHT22;3252;52.540;13.290;2022-10-03T14:43:29;16.60;99.90
6439;DHT22;3252;52.540;13.290;2022-10-03T14:45:38;16.60;99.90
6439;DHT22;3252;52.540;13.290;2022-10-03T14:47:48;16.60;99.90
6439;DHT22;3252;52.540;13.290;2022-10-03T14:49:53;16.50;99.90
6439;DHT22;3252;52.540;13.290;2022-10-03T14:51:59;16.50;99.90
6439;DHT22;3252;52.540;13.290;2022-10-03T14:54:06;16.40;99.90
6439;DHT22;3252;52.540;13.290;2022-10-03T14:56:12;16.40;99.90
6439;DHT22;3252;52.540;13.290;2022-10-03T14:58:18;16.30;99.90
6439;DHT22;3252;52.540;13.290;2022-10-03T15:00:31;16.30;99.90
6439;DHT22;3252;52.540;13.290;2022-10-03T15:02:36;16.30;99.90
6439;DHT22;3252;52.540;13.290;2022-10-03T15:04:39;16.20;99.90
6439;DHT22;3252;52.540;13.290;2022-10-03T15:06:50;16.20;99.90
6439;DHT22;3252;52.540;13.290;2022-10-03T15:08:57;16.20;99.90
6439;DHT22;3252;52.540;13.290;2022-10-03T15:11:03;16.20;99.90
6439;DHT22;3252;52.540;13.290;2022-10-03T15:13:08;16.20;99.90
6439;DHT22;3252;52.540;13.290;2022-10-03T15:15:15;16.10;99.90
6439;DHT22;3252;52.540;13.290;2022-10-03T15:17:20;16.20;99.90
6439;DHT22;3252;52.540;13.290;2022-10-03T15:19:28;16.20;99.90
6439;DHT22;3252;52.540;13.290;2022-10-03T15:21:32;16.10;99.90
6439;DHT22;3252;52.540;13.290;2022-10-03T15:23:38;16.10;99.90
6439;DHT22;3252;52.540;13.290;2022-10-03T15:25:43;16.10;99.90
6439;DHT22;3252;52.540;13.290;2022-10-03T15:27:53;16.00;99.90
6439;DHT22;3252;52.540;13.290;2022-10-03T15:29:59;16.00;99.90
6439;DHT22;3252;52.540;13.290;2022-10-03T15:32:03;16.00;99.90
6439;DHT22;3252;52.540;13.290;2022-10-03T15:34:13;16.00;99.90
6439;DHT22;3252;52.540;13.290;2022-10-03T15:36:21;16.00;99.90
6439;DHT22;3252;52.540;13.290;2022-10-03T15:38:30;15.90;99.90
6439;DHT22;3252;52.540;13.290;2022-10-03T15:40:36;15.90;99.90
6439;DHT22;3252;52.540;13.290;2022-10-03T15:42:50;15.90;99.90
6439;DHT22;3252;52.540;13.290;2022-10-03T15:44:57;15.90;99.90
6439;DHT22;3252;52.540;13.290;2022-10-03T15:47:04;15.90;99.90
6439;DHT22;3252;52.540;13.290;2022-10-03T15:49:12;15.80;99.90
6439;DHT22;3252;52.540;13.290;2022-10-03T15:51:18;15.80;99.90
6439;DHT22;3252;52.540;13.290;2022-10-03T15:53:28;15.80;99.90
6439;DHT22;3252;52.540;13.290;2022-10-03T15:55:34;15.80;99.90
6439;DHT22;3252;52.540;13.290;2022-10-03T15:57:44;15.80;99.90
6439;DHT22;3252;52.540;13.290;2022-10-03T15:59:50;15.70;99.90
6439;DHT22;3252;52.540;13.290;2022-10-03T16:01:56;15.70;99.90
6439;DHT22;3252;52.540;13.290;2022-10-03T16:04:00;15.70;99.90
6439;DHT22;3252;52.540;13.290;2022-10-03T16:06:08;15.70;99.90
6439;DHT22;3252;52.540;13.290;2022-10-03T16:08:18;15.70;99.90
6439;DHT22;3252;52.540;13.290;2022-10-03T16:10:23;15.70;99.90
6439;DHT22;3252;52.540;13.290;2022-10-03T16:12:44;15.70;99.90
6439;DHT22;3252;52.540;13.290;2022-10-03T16:14:48;15.60;99.90
6439;DHT22;3252;52.540;13.290;2022-10-03T16:16:56;15.60;99.90
6439;DHT22;3252;52.540;13.290;2022-10-03T16:19:19;15.60;99.90
6439;DHT22;3252;52.540;13.290;2022-10-03T16:21:35;15.60;99.90
6439;DHT22;3252;52.540;13.290;2022-10-03T16:23:41;15.60;99.90
6439;DHT22;3252;52.540;13.290;2022-10-03T16:25:47;15.60;99.90
6439;DHT22;3252;52.540;13.290;2022-10-03T16:27:55;15.60;99.90
6439;DHT22;3252;52.540;13.290;2022-10-03T16:30:13;15.60;99.90
6439;DHT22;3252;52.540;13.290;2022-10-03T16:32:21;15.50;99.90
6439;DHT22;3252;52.540;13.290;2022-10-03T16:34:25;15.40;99.90
6439;DHT22;3252;52.540;13.290;2022-10-03T16:36:32;15.40;99.90
6439;DHT22;3252;52.540;13.290;2022-10-03T16:38:43;15.30;99.90
6439;DHT22;3252;52.540;13.290;2022-10-03T16:40:53;15.30;99.90
6439;DHT22;3252;52.540;13.290;2022-10-03T16:42:57;15.30;99.90
6439;DHT22;3252;52.540;13.290;2022-10-03T16:45:00;15.20;99.90
6439;DHT22;3252;52.540;13.290;2022-10-03T16:47:03;15.20;99.90
6439;DHT22;3252;52.540;13.290;2022-10-03T16:49:11;15.20;99.90
6439;DHT22;3252;52.540;13.290;2022-10-03T16:51:39;15.10;99.90
6439;DHT22;3252;52.540;13.290;2022-10-03T16:53:42;15.10;99.90
6439;DHT22;3252;52.540;13.290;2022-10-03T16:55:48;15.10;99.90
6439;DHT22;3252;52.540;13.290;2022-10-03T16:57:54;15.10;99.90